Time;durP1;ratioP1;P1;durP2;ratioP2;P2;SDS_P1;SDS_P2;PMS_P1;PMS_P2;Temp;Humidity;BMP_temperature;BMP_pressure;BME280_temperature;BME280_humidity;BME280_pressure;Samples;Min_cycle;Max_cycle;Signal;HPM_P1;HPM_P2
2023/03/30 00:01:22;;;;;;;30.00;25.87;;;9.60;99.90;;;;;;4860171;29;20244;-55
2023/03/30 00:03:50;;;;;;;32.40;26.77;;;9.60;99.90;;;;;;4860349;29;20232;-55
2023/03/30 00:06:21;;;;;;;32.63;26.40;;;9.60;99.90;;;;;;4860808;29;20693;-55
2023/03/30 00:08:52;;;;;;;31.20;27.67;;;9.50;99.90;;;;;;4860797;29;20652;-55
2023/03/30 00:11:22;;;;;;;30.57;24.90;;;9.50;99.90;;;;;;4860299;29;20229;-55
2023/03/30 00:13:50;;;;;;;31.17;26.50;;;9.60;99.90;;;;;;4860994;29;20378;-55
2023/03/30 00:16:20;;;;;;;27.57;24.57;;;9.60;99.90;;;;;;4860562;29;20232;-55
2023/03/30 00:18:50;;;;;;;30.67;24.43;;;9.60;99.90;;;;;;4865962;29;20276;-55
2023/03/30 00:21:19;;;;;;;28.40;24.07;;;9.60;99.90;;;;;;4860677;29;20249;-55
2023/03/30 00:23:47;;;;;;;27.50;23.37;;;9.60;99.90;;;;;;4860280;29;20239;-55
2023/03/30 00:26:16;;;;;;;26.20;22.40;;;9.60;99.90;;;;;;4860448;29;20240;-55
2023/03/30 00:28:45;;;;;;;28.07;22.87;;;9.60;99.90;;;;;;4860453;29;20273;-55
2023/03/30 00:31:13;;;;;;;24.27;21.67;;;9.60;99.90;;;;;;4860878;29;20606;-55
2023/03/30 00:33:42;;;;;;;27.97;22.10;;;9.60;99.90;;;;;;4862862;29;20225;-55
2023/03/30 00:36:16;;;;;;;24.93;21.67;;;9.60;99.90;;;;;;4859877;29;20226;-54
2023/03/30 00:38:47;;;;;;;26.27;21.10;;;9.60;99.90;;;;;;4860232;29;20234;-54
2023/03/30 00:41:16;;;;;;;25.73;22.40;;;9.60;99.90;;;;;;4860501;29;20268;-55
2023/03/30 00:43:56;;;;;;;24.90;20.97;;;9.60;99.90;;;;;;4860155;29;20227;-55
2023/03/30 00:46:24;;;;;;;23.73;20.90;;;9.60;99.90;;;;;;4860000;29;20256;-55
2023/03/30 00:48:56;;;;;;;25.13;21.00;;;9.60;99.90;;;;;;4867094;29;20235;-55
2023/03/30 00:51:27;;;;;;;23.83;20.83;;;9.60;99.90;;;;;;4860027;29;20237;-54
2023/03/30 00:54:01;;;;;;;27.13;20.80;;;9.50;99.90;;;;;;4860147;29;20235;-55
2023/03/30 00:56:30;;;;;;;25.53;21.20;;;9.60;99.90;;;;;;4859972;29;20247;-55
2023/03/30 00:59:00;;;;;;;25.10;21.87;;;9.60;99.90;;;;;;4843432;29;20242;-55
2023/03/30 01:01:32;;;;;;;24.53;20.27;;;9.60;99.90;;;;;;4862404;29;20254;-58
2023/03/30 01:04:12;;;;;;;24.97;20.90;;;9.60;99.90;;;;;;4874104;29;20317;-58
2023/03/30 01:06:45;;;;;;;22.00;19.13;;;9.50;99.90;;;;;;4860000;29;20238;-58
2023/03/30 01:09:14;;;;;;;23.67;20.07;;;9.50;99.90;;;;;;4860353;29;20276;-58
2023/03/30 01:11:43;;;;;;;25.10;20.73;;;9.60;99.90;;;;;;4859900;29;20305;-58
2023/03/30 01:14:15;;;;;;;25.47;21.17;;;9.60;99.90;;;;;;4860078;29;20734;-58
2023/03/30 01:16:53;;;;;;;24.10;20.40;;;9.60;99.90;;;;;;4861418;29;20238;-58
2023/03/30 01:19:47;;;;;;;25.43;20.80;;;9.60;99.90;;;;;;4853690;29;20578;-58
2023/03/30 01:22:52;;;;;;;25.40;20.37;;;9.60;99.90;;;;;;4871554;29;20241;-58
2023/03/30 01:25:58;;;;;;;22.60;19.73;;;9.60;99.90;;;;;;4863350;29;20245;-57
2023/03/30 01:28:36;;;;;;;27.40;21.27;;;9.60;99.90;;;;;;4843436;29;20233;-58
2023/03/30 01:31:26;;;;;;;24.30;21.07;;;9.60;99.90;;;;;;4862835;29;20258;-59
2023/03/30 01:34:18;;;;;;;23.07;20.53;;;9.60;99.90;;;;;;4861905;29;20292;-57
2023/03/30 01:37:16;;;;;;;23.93;19.97;;;9.60;99.90;;;;;;4863027;29;20260;-58
2023/03/30 01:39:55;;;;;;;23.63;19.13;;;9.60;99.90;;;;;;4860085;29;20243;-58
2023/03/30 01:42:34;;;;;;;21.93;19.20;;;9.60;99.90;;;;;;4863079;29;20324;-58
2023/03/30 01:45:12;;;;;;;24.90;21.00;;;9.60;99.90;;;;;;4863000;29;20229;-58
2023/03/30 01:47:47;;;;;;;23.77;19.57;;;9.60;99.90;;;;;;4862860;29;20232;-58
2023/03/30 01:50:23;;;;;;;24.73;19.87;;;9.60;99.90;;;;;;4868770;29;20742;-58
2023/03/30 01:52:57;;;;;;;25.20;20.10;;;9.60;99.90;;;;;;4860129;29;20664;-58
2023/03/30 01:55:33;;;;;;;23.63;18.63;;;9.60;99.90;;;;;;4862706;29;20264;-58
2023/03/30 01:58:06;;;;;;;21.93;18.67;;;9.50;99.90;;;;;;4862656;29;20247;-58
2023/03/30 02:00:36;;;;;;;22.87;19.17;;;9.60;99.90;;;;;;4862222;29;20697;-58
2023/03/30 02:03:09;;;;;;;24.80;19.57;;;9.60;99.90;;;;;;4866605;29;20246;-58
2023/03/30 02:05:39;;;;;;;24.33;20.27;;;9.50;99.90;;;;;;4862431;29;20778;-58
2023/03/30 02:08:10;;;;;;;22.33;19.33;;;9.60;99.90;;;;;;4862886;29;20706;-58
2023/03/30 02:10:41;;;;;;;22.30;18.13;;;9.60;99.90;;;;;;4862380;29;20247;-58
2023/03/30 02:13:11;;;;;;;20.80;18.07;;;9.60;99.90;;;;;;4862553;29;20243;-58
2023/03/30 02:15:44;;;;;;;22.13;18.63;;;9.60;99.90;;;;;;4845475;29;20235;-58
2023/03/30 02:18:12;;;;;;;23.33;18.13;;;9.60;99.90;;;;;;4849298;29;20779;-58
2023/03/30 02:20:41;;;;;;;23.70;18.43;;;9.60;99.90;;;;;;4848262;29;20228;-58
2023/03/30 02:23:10;;;;;;;25.13;18.20;;;9.60;99.90;;;;;;4862379;29;20239;-58
2023/03/30 02:25:39;;;;;;;21.27;18.20;;;9.70;99.90;;;;;;4862022;29;20699;-58
2023/03/30 02:28:08;;;;;;;21.97;17.87;;;9.60;99.90;;;;;;4861075;29;20236;-58
2023/03/30 02:30:41;;;;;;;20.77;17.73;;;9.60;99.90;;;;;;4856737;29;20244;-58
2023/03/30 02:33:20;;;;;;;20.90;17.77;;;9.60;99.90;;;;;;4866068;29;20597;-58
2023/03/30 02:36:16;;;;;;;21.17;18.50;;;9.60;99.90;;;;;;4861905;29;20226;-58
2023/03/30 02:39:06;;;;;;;22.20;17.67;;;9.60;99.90;;;;;;4862019;29;20233;-58
2023/03/30 02:41:51;;;;;;;21.27;18.50;;;9.60;99.90;;;;;;4845287;29;20296;-58
2023/03/30 02:44:29;;;;;;;21.50;18.47;;;9.70;99.90;;;;;;4845287;29;20237;-58
2023/03/30 02:47:06;;;;;;;22.40;17.97;;;9.60;99.90;;;;;;4845403;29;20653;-58
2023/03/30 02:49:50;;;;;;;21.23;17.80;;;9.60;99.90;;;;;;4850213;29;20717;-58
2023/03/30 02:52:32;;;;;;;22.07;18.30;;;9.50;99.90;;;;;;4839747;29;20644;-57
2023/03/30 02:55:10;;;;;;;20.97;17.53;;;9.50;99.90;;;;;;4876005;29;20715;-58
2023/03/30 02:58:15;;;;;;;21.23;16.50;;;9.50;99.90;;;;;;4845247;29;20246;-58
2023/03/30 03:01:04;;;;;;;22.23;17.87;;;9.40;99.90;;;;;;4844466;29;20731;-58
2023/03/30 03:04:00;;;;;;;23.50;18.03;;;9.40;99.90;;;;;;4856217;29;20315;-58
2023/03/30 03:06:34;;;;;;;21.87;16.90;;;9.40;99.90;;;;;;4844860;29;20239;-58
2023/03/30 03:09:02;;;;;;;22.03;18.70;;;9.40;99.90;;;;;;4844963;29;20703;-58
2023/03/30 03:11:32;;;;;;;20.13;16.63;;;9.30;99.90;;;;;;4844673;29;20619;-59
2023/03/30 03:14:02;;;;;;;23.37;17.63;;;9.30;99.90;;;;;;4861705;29;20642;-58
2023/03/30 03:16:33;;;;;;;19.70;16.63;;;9.30;99.90;;;;;;4844554;29;20239;-58
2023/03/30 03:19:19;;;;;;;22.47;17.40;;;9.30;99.90;;;;;;4868281;29;20719;-58
2023/03/30 03:21:50;;;;;;;19.83;16.83;;;9.30;99.90;;;;;;4875282;29;20315;-58
2023/03/30 03:24:18;;;;;;;19.83;16.80;;;9.30;99.90;;;;;;4844648;29;20241;-58
2023/03/30 03:27:05;;;;;;;21.57;17.20;;;9.30;99.90;;;;;;4860995;29;20738;-58
2023/03/30 03:29:46;;;;;;;18.77;16.53;;;9.40;99.90;;;;;;4844365;29;20242;-59
2023/03/30 03:32:15;;;;;;;21.30;17.00;;;9.40;99.90;;;;;;4847958;29;20235;-58
2023/03/30 03:34:46;;;;;;;20.63;17.67;;;9.40;99.90;;;;;;4875054;29;20612;-58
2023/03/30 03:37:14;;;;;;;22.10;16.90;;;9.40;99.90;;;;;;4861345;29;20318;-58
2023/03/30 03:39:44;;;;;;;21.17;17.97;;;9.40;99.90;;;;;;4844029;29;20240;-58
2023/03/30 03:42:14;;;;;;;21.37;16.67;;;9.40;99.90;;;;;;4875456;29;20229;-58
2023/03/30 03:45:06;;;;;;;20.00;16.83;;;9.40;99.90;;;;;;4860565;29;20639;-58
2023/03/30 03:47:36;;;;;;;18.20;15.63;;;9.50;99.90;;;;;;4875034;29;20266;-58
2023/03/30 03:50:08;;;;;;;19.77;15.40;;;9.50;99.90;;;;;;4867790;29;20231;-58
2023/03/30 03:52:36;;;;;;;21.67;15.77;;;9.50;99.90;;;;;;4874977;29;20655;-59
2023/03/30 03:55:06;;;;;;;19.87;14.83;;;9.50;99.90;;;;;;4860822;29;20768;-59
2023/03/30 03:57:36;;;;;;;17.53;15.20;;;9.50;99.90;;;;;;4843721;29;20338;-57
2023/03/30 04:00:14;;;;;;;19.47;15.07;;;9.50;99.90;;;;;;4856527;29;20240;-59
2023/03/30 04:02:44;;;;;;;17.97;15.00;;;9.50;99.90;;;;;;4868186;29;20264;-58
2023/03/30 04:05:13;;;;;;;22.10;15.40;;;9.50;99.90;;;;;;4844109;29;20232;-59
2023/03/30 04:07:45;;;;;;;19.47;14.60;;;9.50;99.90;;;;;;4860734;29;20237;-59
2023/03/30 04:10:14;;;;;;;16.53;14.30;;;9.50;99.90;;;;;;4844058;29;20327;-59
2023/03/30 04:13:01;;;;;;;17.67;14.30;;;9.50;99.90;;;;;;4860287;29;20623;-59
2023/03/30 04:15:30;;;;;;;19.43;15.60;;;9.50;99.90;;;;;;4860661;29;20247;-59
2023/03/30 04:18:10;;;;;;;18.40;14.53;;;9.50;99.90;;;;;;4843824;29;20240;-58
2023/03/30 04:21:16;;;;;;;18.43;15.17;;;9.50;99.90;;;;;;4829972;29;20617;-58
2023/03/30 04:24:14;;;;;;;18.47;13.77;;;9.50;99.90;;;;;;4829082;29;20711;-59
2023/03/30 04:27:08;;;;;;;16.10;13.90;;;9.50;99.90;;;;;;4860151;29;20681;-59
2023/03/30 04:29:45;;;;;;;16.17;13.33;;;9.50;99.90;;;;;;4874399;29;20911;-59
2023/03/30 04:32:33;;;;;;;16.97;14.17;;;9.60;99.90;;;;;;4863672;29;20244;-58
2023/03/30 04:35:15;;;;;;;15.33;12.70;;;9.60;99.90;;;;;;4858035;29;20756;-58
2023/03/30 04:38:05;;;;;;;16.57;13.17;;;9.60;99.90;;;;;;4859919;29;20776;-58
2023/03/30 04:41:00;;;;;;;16.90;13.27;;;9.60;99.90;;;;;;4855667;29;20709;-59
2023/03/30 04:43:52;;;;;;;17.87;13.00;;;9.70;99.90;;;;;;4843574;29;20241;-59
2023/03/30 04:46:52;;;;;;;15.03;11.47;;;9.70;99.90;;;;;;4843893;29;20231;-58
2023/03/30 04:49:48;;;;;;;18.37;11.90;;;9.70;99.90;;;;;;4856264;29;20241;-59
2023/03/30 04:52:42;;;;;;;14.50;12.37;;;9.70;99.90;;;;;;4861899;29;20336;-59
2023/03/30 04:55:31;;;;;;;13.60;11.80;;;9.70;99.90;;;;;;4846850;29;20268;-59
2023/03/30 04:58:18;;;;;;;14.07;11.10;;;9.80;99.90;;;;;;4863876;29;20255;-58
2023/03/30 05:01:09;;;;;;;17.27;11.10;;;9.80;99.90;;;;;;4853337;29;20258;-57
2023/03/30 05:04:00;;;;;;;12.60;10.70;;;9.90;99.90;;;;;;4852567;29;20238;-59
2023/03/30 05:06:48;;;;;;;13.40;11.07;;;9.90;99.90;;;;;;4863307;29;20262;-59
2023/03/30 05:09:35;;;;;;;12.97;10.27;;;9.90;99.90;;;;;;4863347;29;20245;-58
2023/03/30 05:12:22;;;;;;;14.13;10.47;;;10.00;99.90;;;;;;4845128;29;20247;-57
2023/03/30 05:15:09;;;;;;;14.33;10.57;;;10.00;99.90;;;;;;4845403;29;20806;-57
2023/03/30 05:17:53;;;;;;;13.23;10.23;;;10.00;99.90;;;;;;4869496;29;20232;-58
2023/03/30 05:20:40;;;;;;;11.97;10.67;;;10.10;99.90;;;;;;4861177;29;20323;-59
2023/03/30 05:23:23;;;;;;;13.93;9.80;;;10.10;99.90;;;;;;4846351;29;20235;-58
2023/03/30 05:25:52;;;;;;;11.00;9.37;;;10.10;99.90;;;;;;4863250;29;20225;-58
2023/03/30 05:28:58;;;;;;;12.73;9.00;;;10.20;99.90;;;;;;4770501;30;20242;-58
2023/03/30 05:31:45;;;;;;;12.37;9.70;;;10.20;99.90;;;;;;4771732;30;20260;-59
2023/03/30 05:34:41;;;;;;;12.70;8.47;;;10.30;99.90;;;;;;4851418;29;20730;-57
2023/03/30 05:37:32;;;;;;;12.10;9.37;;;10.40;99.90;;;;;;4852546;29;20250;-58
2023/03/30 05:40:24;;;;;;;12.83;9.93;;;10.30;99.90;;;;;;4833232;29;20267;-58
2023/03/30 05:43:11;;;;;;;14.97;8.77;;;10.20;99.90;;;;;;4860800;29;20772;-58
2023/03/30 05:46:05;;;;;;;11.73;9.03;;;10.30;99.90;;;;;;4848424;29;20775;-58
2023/03/30 05:49:01;;;;;;;13.20;9.40;;;10.50;99.90;;;;;;4845784;29;20230;-58
2023/03/30 05:51:40;;;;;;;15.00;10.10;;;10.40;99.90;;;;;;4876539;29;20245;-58
2023/03/30 05:54:27;;;;;;;12.90;9.87;;;10.30;99.90;;;;;;4876319;29;20282;-58
2023/03/30 05:57:15;;;;;;;13.07;9.47;;;10.30;99.90;;;;;;4863262;29;20240;-58
2023/03/30 05:59:53;;;;;;;18.17;12.00;;;10.30;99.90;;;;;;4845525;29;20601;-58
2023/03/30 06:02:39;;;;;;;16.53;10.23;;;10.30;99.90;;;;;;4861387;29;20245;-58
2023/03/30 06:05:15;;;;;;;14.90;9.90;;;10.40;99.90;;;;;;4845287;29;20719;-58
2023/03/30 06:07:45;;;;;;;11.60;8.93;;;10.30;99.90;;;;;;4845243;29;20272;-58
2023/03/30 06:10:13;;;;;;;11.37;9.00;;;10.30;99.90;;;;;;4864725;29;20312;-58
2023/03/30 06:12:44;;;;;;;14.53;9.07;;;10.20;99.90;;;;;;4845219;29;20262;-58
2023/03/30 06:15:26;;;;;;;10.90;8.70;;;10.20;99.90;;;;;;4845340;29;20230;-58
2023/03/30 06:18:03;;;;;;;12.57;8.73;;;10.30;99.90;;;;;;4844840;29;20358;-59
2023/03/30 06:20:34;;;;;;;11.73;8.50;;;10.40;99.90;;;;;;4845021;29;20243;-58
2023/03/30 06:23:02;;;;;;;9.73;7.37;;;10.50;99.90;;;;;;4871830;29;20259;-59
2023/03/30 06:25:31;;;;;;;12.63;7.70;;;10.60;99.90;;;;;;4844787;29;20330;-58
2023/03/30 06:28:01;;;;;;;12.17;8.07;;;10.60;99.90;;;;;;4844867;29;20714;-58
2023/03/30 06:30:29;;;;;;;11.07;7.80;;;10.70;99.90;;;;;;4844381;29;20269;-59
2023/03/30 06:33:02;;;;;;;14.30;7.70;;;10.70;99.90;;;;;;4848652;29;20271;-58
2023/03/30 06:35:37;;;;;;;11.37;7.23;;;10.80;99.90;;;;;;4844566;29;20339;-57
2023/03/30 06:38:06;;;;;;;10.37;7.40;;;10.90;99.90;;;;;;4865844;29;20269;-58
2023/03/30 06:40:35;;;;;;;11.30;7.07;;;11.00;99.90;;;;;;4867664;29;20286;-59
2023/03/30 06:43:06;;;;;;;10.57;6.87;;;11.10;99.90;;;;;;4846742;29;20374;-58
2023/03/30 06:45:50;;;;;;;12.20;6.53;;;11.30;99.90;;;;;;4844858;29;20840;-59
2023/03/30 06:48:21;;;;;;;8.70;6.20;;;11.40;99.90;;;;;;4882802;29;20237;-59
2023/03/30 06:50:55;;;;;;;8.97;6.27;;;11.40;99.90;;;;;;4846327;29;20236;-58
2023/03/30 06:53:25;;;;;;;8.77;5.67;;;11.50;99.90;;;;;;4867124;29;20324;-58
2023/03/30 06:55:55;;;;;;;8.87;5.93;;;11.40;99.90;;;;;;4842112;29;20315;-59
2023/03/30 06:58:27;;;;;;;9.03;5.97;;;11.40;99.90;;;;;;4875436;29;20634;-57
2023/03/30 07:00:55;;;;;;;10.97;6.10;;;11.50;99.90;;;;;;4843802;29;20238;-58
2023/03/30 07:03:45;;;;;;;9.03;5.33;;;11.40;99.90;;;;;;4844406;29;20700;-59
2023/03/30 07:06:23;;;;;;;7.57;5.33;;;11.50;99.90;;;;;;4860021;29;20241;-59
2023/03/30 07:08:52;;;;;;;9.53;5.63;;;11.50;99.90;;;;;;4875372;29;20241;-59
2023/03/30 07:11:25;;;;;;;7.60;5.40;;;11.50;99.90;;;;;;4871549;29;20247;-58
2023/03/30 07:13:57;;;;;;;9.03;5.43;;;11.60;99.90;;;;;;4850897;29;20279;-59
2023/03/30 07:16:25;;;;;;;8.07;5.73;;;11.70;99.90;;;;;;4849477;29;20576;-59
2023/03/30 07:18:54;;;;;;;9.50;5.37;;;11.70;99.90;;;;;;4875302;29;20246;-59
2023/03/30 07:21:22;;;;;;;9.13;5.67;;;11.70;99.90;;;;;;4842813;29;20275;-58
2023/03/30 07:23:50;;;;;;;9.27;5.70;;;11.70;99.90;;;;;;4873314;29;20334;-58
2023/03/30 07:26:29;;;;;;;8.47;5.40;;;11.80;99.90;;;;;;4851793;29;20266;-58
2023/03/30 07:29:07;;;;;;;8.43;5.70;;;11.80;99.90;;;;;;4852490;29;20662;-58
2023/03/30 07:31:38;;;;;;;7.33;5.57;;;11.90;99.90;;;;;;4836235;29;20332;-57
2023/03/30 07:34:09;;;;;;;9.23;5.73;;;12.10;99.90;;;;;;4834015;29;20668;-58
2023/03/30 07:36:41;;;;;;;8.60;5.07;;;12.30;99.90;;;;;;4831415;29;20248;-57
2023/03/30 07:39:10;;;;;;;8.70;5.23;;;12.50;99.90;;;;;;4831223;29;20772;-58
2023/03/30 07:41:40;;;;;;;7.67;4.77;;;12.70;99.90;;;;;;4862449;29;20778;-57
2023/03/30 07:44:09;;;;;;;9.47;5.43;;;13.10;99.90;;;;;;4862645;29;20686;-57
2023/03/30 07:46:38;;;;;;;8.07;5.07;;;13.30;99.90;;;;;;4831622;29;20717;-59
2023/03/30 07:49:08;;;;;;;8.63;5.10;;;13.10;99.90;;;;;;4830676;29;20785;-59
2023/03/30 07:51:36;;;;;;;8.33;4.70;;;13.10;99.90;;;;;;4863584;29;20260;-57
2023/03/30 07:54:13;;;;;;;7.30;5.20;;;13.00;99.90;;;;;;4848498;29;20243;-58
2023/03/30 07:56:57;;;;;;;6.93;5.20;;;12.90;99.90;;;;;;4836603;29;20233;-58
2023/03/30 07:59:26;;;;;;;9.17;5.50;;;12.80;99.90;;;;;;4835198;29;20598;-57
2023/03/30 08:02:00;;;;;;;8.23;4.87;;;12.80;99.90;;;;;;4866629;29;20313;-58
2023/03/30 08:04:40;;;;;;;6.00;4.90;;;12.80;99.90;;;;;;4836079;29;20233;-58
2023/03/30 08:07:09;;;;;;;7.07;4.53;;;12.70;99.90;;;;;;4832236;29;20271;-56
2023/03/30 08:09:38;;;;;;;6.63;4.30;;;12.70;99.90;;;;;;4834915;29;20765;-59
2023/03/30 08:12:06;;;;;;;9.50;5.30;;;12.80;99.90;;;;;;4836200;29;20264;-58
2023/03/30 08:14:36;;;;;;;6.17;4.80;;;12.80;99.90;;;;;;4853392;29;20724;-59
2023/03/30 08:17:05;;;;;;;8.07;5.30;;;12.80;99.90;;;;;;4853013;29;20257;-57
2023/03/30 08:19:34;;;;;;;7.60;5.10;;;12.70;99.90;;;;;;4851718;29;20593;-58
2023/03/30 08:22:06;;;;;;;10.03;5.03;;;12.70;99.90;;;;;;4849562;29;20242;-57
2023/03/30 08:24:35;;;;;;;8.63;4.70;;;12.70;99.90;;;;;;4848286;29;20575;-58
2023/03/30 08:30:07;;;;;;;9.20;4.60;;;13.00;99.90;;;;;;5848630;23;20190;-56
2023/03/30 08:32:36;;;;;;;7.30;4.43;;;13.10;99.90;;;;;;4917736;29;20235;-58
2023/03/30 08:35:07;;;;;;;6.63;4.10;;;13.10;99.90;;;;;;4917768;29;20239;-59
2023/03/30 08:37:36;;;;;;;7.80;4.17;;;13.40;99.90;;;;;;4917583;29;20973;-59
2023/03/30 08:40:09;;;;;;;6.60;4.30;;;13.90;99.90;;;;;;4920040;29;20741;-59
2023/03/30 08:42:49;;;;;;;8.60;4.30;;;14.40;99.90;;;;;;4921608;29;20234;-59
2023/03/30 08:45:21;;;;;;;7.07;4.07;;;14.80;99.90;;;;;;4920632;29;20227;-59
2023/03/30 08:47:53;;;;;;;7.53;4.00;;;14.80;99.90;;;;;;4917652;29;20228;-58
2023/03/30 08:50:31;;;;;;;7.17;3.90;;;14.70;99.90;;;;;;4916046;29;20239;-58
2023/03/30 08:53:02;;;;;;;9.97;3.90;;;14.70;99.90;;;;;;4918304;29;20595;-58
2023/03/30 08:55:39;;;;;;;7.93;4.10;;;14.70;99.90;;;;;;4917879;29;20247;-58
2023/03/30 08:58:14;;;;;;;7.67;3.93;;;14.80;99.90;;;;;;4920224;29;20605;-59
2023/03/30 09:00:50;;;;;;;5.90;3.70;;;15.00;99.90;;;;;;4918966;29;20844;-59
2023/03/30 09:03:26;;;;;;;8.27;4.10;;;15.20;99.90;;;;;;4921247;29;20239;-57
2023/03/30 09:06:00;;;;;;;7.27;4.07;;;15.10;99.90;;;;;;4920985;29;20250;-57
2023/03/30 09:08:30;;;;;;;5.93;4.20;;;14.90;99.90;;;;;;4919822;29;20224;-58
2023/03/30 09:11:01;;;;;;;7.63;4.37;;;14.80;99.90;;;;;;4919375;29;20705;-59
2023/03/30 09:13:34;;;;;;;5.57;4.10;;;14.60;99.90;;;;;;4920393;29;20267;-60
2023/03/30 09:16:13;;;;;;;7.70;4.17;;;14.30;99.90;;;;;;4924385;29;20232;-59
2023/03/30 09:18:43;;;;;;;8.50;4.00;;;14.00;99.90;;;;;;4921732;29;20251;-59
2023/03/30 09:21:13;;;;;;;8.53;3.97;;;13.80;99.90;;;;;;4920491;29;20249;-59
2023/03/30 09:23:41;;;;;;;6.43;3.73;;;13.70;99.90;;;;;;4921684;29;20232;-58
2023/03/30 09:26:18;;;;;;;7.53;4.20;;;13.60;99.90;;;;;;4922285;29;20223;-58
2023/03/30 09:28:55;;;;;;;8.77;4.20;;;13.70;99.90;;;;;;4920510;29;20721;-59
2023/03/30 09:31:31;;;;;;;7.07;3.57;;;13.90;99.90;;;;;;4919217;29;20247;-59
2023/03/30 09:34:03;;;;;;;4.07;3.43;;;14.20;99.90;;;;;;4919574;29;20275;-58
2023/03/30 09:36:43;;;;;;;5.30;3.27;;;14.20;99.90;;;;;;4920503;29;20721;-58
2023/03/30 09:39:16;;;;;;;6.03;3.23;;;14.10;99.90;;;;;;4921496;29;20235;-58
2023/03/30 09:41:58;;;;;;;7.30;3.40;;;14.10;99.90;;;;;;4921680;29;20599;-59
2023/03/30 09:44:32;;;;;;;6.67;3.27;;;14.20;99.90;;;;;;4921924;29;20226;-59
2023/03/30 09:47:03;;;;;;;7.20;3.33;;;14.30;99.90;;;;;;4923657;29;20232;-60
2023/03/30 09:49:38;;;;;;;5.77;3.37;;;14.30;99.90;;;;;;4921340;29;20243;-59
2023/03/30 09:52:07;;;;;;;6.23;3.30;;;14.40;99.90;;;;;;4923790;29;20774;-59
2023/03/30 09:54:37;;;;;;;5.87;3.00;;;14.40;99.90;;;;;;4923338;29;20579;-60
2023/03/30 09:57:06;;;;;;;6.83;3.47;;;14.70;99.90;;;;;;4917917;29;20260;-59
2023/03/30 09:59:36;;;;;;;6.27;3.13;;;15.00;99.90;;;;;;4921508;29;20247;-59
2023/03/30 10:02:18;;;;;;;4.87;2.67;;;15.50;99.90;;;;;;4922597;29;20318;-59
2023/03/30 10:05:02;;;;;;;4.40;2.20;;;15.90;99.90;;;;;;4921142;29;20334;-59
2023/03/30 10:07:36;;;;;;;4.97;2.37;;;16.20;99.90;;;;;;4923660;29;20606;-58
2023/03/30 10:10:15;;;;;;;4.33;2.20;;;16.40;99.90;;;;;;4919534;29;20299;-59
2023/03/30 10:12:44;;;;;;;6.87;2.43;;;16.60;99.90;;;;;;4920068;29;20238;-58
2023/03/30 10:15:17;;;;;;;6.60;2.50;;;16.40;99.90;;;;;;4924459;29;20712;-59
2023/03/30 10:17:50;;;;;;;10.30;2.47;;;16.10;99.90;;;;;;4924199;29;20232;-58
2023/03/30 10:20:26;;;;;;;5.23;1.97;;;15.80;99.90;;;;;;4921920;29;20240;-58
2023/03/30 10:22:56;;;;;;;3.23;2.00;;;15.40;99.90;;;;;;4923582;29;20224;-59
2023/03/30 10:25:28;;;;;;;4.60;1.80;;;15.20;99.90;;;;;;4923528;29;20912;-58
2023/03/30 10:28:01;;;;;;;2.83;1.70;;;15.20;99.90;;;;;;4922688;29;20722;-59
2023/03/30 10:30:32;;;;;;;4.00;1.93;;;15.10;99.90;;;;;;4920221;29;20300;-60
2023/03/30 10:33:03;;;;;;;5.23;2.30;;;15.30;99.90;;;;;;4920878;29;21059;-59
2023/03/30 10:35:37;;;;;;;5.07;2.20;;;15.40;99.90;;;;;;4921111;29;20240;-59
2023/03/30 10:38:09;;;;;;;6.33;2.03;;;15.60;99.90;;;;;;4920049;29;20287;-57
2023/03/30 10:40:41;;;;;;;6.57;2.00;;;15.50;99.90;;;;;;4919246;29;20233;-59
2023/03/30 10:43:15;;;;;;;6.73;2.53;;;15.60;99.90;;;;;;4922151;29;20219;-59
2023/03/30 10:45:48;;;;;;;6.80;2.00;;;15.70;99.90;;;;;;4921005;29;20224;-57
2023/03/30 10:48:37;;;;;;;4.03;1.80;;;16.30;99.90;;;;;;4921821;29;20255;-57
2023/03/30 10:51:17;;;;;;;5.00;1.60;;;16.60;99.90;;;;;;4919960;29;20255;-59
2023/03/30 10:53:55;;;;;;;6.70;1.60;;;16.70;99.90;;;;;;4922401;29;20232;-57
2023/03/30 10:56:34;;;;;;;8.43;1.50;;;16.40;99.90;;;;;;4923033;29;20226;-58
2023/03/30 10:59:30;;;;;;;6.00;1.70;;;16.10;99.90;;;;;;4920374;29;20232;-58
2023/03/30 11:02:20;;;;;;;6.13;2.10;;;16.20;99.90;;;;;;4920779;29;20236;-58
2023/03/30 11:04:54;;;;;;;7.77;2.07;;;16.30;99.90;;;;;;4920461;29;20226;-57
2023/03/30 11:07:29;;;;;;;8.00;2.00;;;16.30;99.90;;;;;;4920874;29;20235;-58
2023/03/30 11:10:02;;;;;;;7.27;2.07;;;16.30;99.90;;;;;;4919019;29;20710;-58
2023/03/30 11:12:36;;;;;;;6.33;2.00;;;16.20;99.90;;;;;;4923096;29;20332;-59
2023/03/30 11:15:09;;;;;;;7.73;2.07;;;16.20;99.90;;;;;;4921938;29;20614;-58
2023/03/30 11:17:44;;;;;;;4.43;1.53;;;16.20;99.90;;;;;;4921288;29;20638;-58
2023/03/30 11:20:26;;;;;;;7.17;2.50;;;16.00;99.90;;;;;;4919259;29;20273;-58
2023/03/30 11:23:03;;;;;;;7.87;1.80;;;15.80;99.90;;;;;;4921857;29;20768;-57
2023/03/30 11:25:39;;;;;;;7.40;1.90;;;15.80;99.90;;;;;;4919364;29;20239;-59
2023/03/30 11:28:18;;;;;;;11.43;2.30;;;15.80;99.90;;;;;;4920906;29;20255;-58
2023/03/30 11:30:48;;;;;;;8.50;2.30;;;15.60;99.90;;;;;;4917481;29;20770;-58
2023/03/30 11:33:25;;;;;;;5.30;2.03;;;15.50;99.90;;;;;;4923666;29;20236;-58
2023/03/30 11:35:59;;;;;;;8.07;2.23;;;15.30;99.90;;;;;;4921659;29;20766;-59
2023/03/30 11:38:33;;;;;;;7.23;2.20;;;15.20;99.90;;;;;;4921281;29;20224;-57
2023/03/30 11:41:07;;;;;;;7.50;2.30;;;15.10;99.90;;;;;;4919742;29;20227;-59
2023/03/30 11:43:35;;;;;;;8.83;2.07;;;14.80;99.90;;;;;;4921645;29;20730;-58
2023/03/30 11:46:08;;;;;;;8.93;2.30;;;14.60;99.90;;;;;;4920436;29;20243;-58
2023/03/30 11:49:09;;;;;;;8.87;2.07;;;14.20;99.90;;;;;;4919107;29;20247;-59
2023/03/30 11:51:54;;;;;;;8.50;1.87;;;13.90;99.90;;;;;;4908910;29;20259;-59
2023/03/30 11:54:46;;;;;;;9.67;2.30;;;13.60;99.90;;;;;;4921924;29;20239;-59
2023/03/30 11:57:36;;;;;;;7.07;1.90;;;13.40;99.90;;;;;;4918154;29;20318;-58
2023/03/30 12:00:23;;;;;;;10.73;2.27;;;13.30;99.90;;;;;;4917271;29;20711;-59
2023/03/30 12:02:57;;;;;;;9.50;3.00;;;13.40;99.90;;;;;;4919293;29;20250;-59
2023/03/30 12:05:31;;;;;;;11.53;2.60;;;13.40;99.90;;;;;;4919933;29;20228;-57
2023/03/30 12:08:10;;;;;;;10.90;2.37;;;13.60;99.90;;;;;;4918656;29;20242;-59
2023/03/30 12:10:40;;;;;;;8.10;2.73;;;13.90;99.90;;;;;;4916035;29;20228;-59
2023/03/30 12:13:13;;;;;;;12.33;2.97;;;14.00;99.90;;;;;;4922095;29;20227;-59
2023/03/30 12:15:47;;;;;;;9.77;2.50;;;14.10;99.90;;;;;;4922271;29;20221;-59
2023/03/30 12:18:28;;;;;;;9.27;2.30;;;14.30;99.90;;;;;;4921288;29;20231;-59
2023/03/30 12:21:05;;;;;;;9.47;2.73;;;14.30;99.90;;;;;;4918906;29;20232;-58
2023/03/30 12:23:41;;;;;;;9.77;2.73;;;14.40;99.90;;;;;;4921076;29;20231;-58
2023/03/30 12:26:19;;;;;;;14.23;2.60;;;14.90;99.90;;;;;;4922083;29;21299;-59
2023/03/30 12:28:57;;;;;;;9.47;2.87;;;15.00;99.90;;;;;;4919629;29;20246;-58
2023/03/30 12:32:05;;;;;;;9.03;2.50;;;15.10;99.90;;;;;;4919227;29;20248;-59
2023/03/30 12:34:35;;;;;;;8.93;2.30;;;15.10;99.90;;;;;;4918687;29;20327;-58
2023/03/30 12:37:08;;;;;;;9.90;2.30;;;15.00;99.90;;;;;;4921085;29;20707;-58
2023/03/30 12:39:47;;;;;;;15.33;2.70;;;14.80;99.90;;;;;;4919187;29;20233;-60
2023/03/30 12:42:26;;;;;;;8.70;2.27;;;14.70;99.90;;;;;;4919772;29;20267;-57
2023/03/30 12:45:12;;;;;;;11.80;2.50;;;14.70;99.90;;;;;;4920924;29;20572;-59
2023/03/30 12:48:02;;;;;;;9.93;2.37;;;14.70;99.90;;;;;;4920778;29;20647;-57
2023/03/30 12:50:42;;;;;;;6.27;1.90;;;14.60;99.90;;;;;;4907668;29;21005;-58
2023/03/30 12:53:28;;;;;;;11.10;2.67;;;14.60;99.90;;;;;;4920868;29;20252;-59
2023/03/30 12:56:05;;;;;;;10.00;2.40;;;14.60;99.90;;;;;;4921010;29;20307;-59
2023/03/30 12:59:03;;;;;;;11.03;2.53;;;14.60;99.90;;;;;;4922104;29;20922;-58
2023/03/30 13:01:45;;;;;;;7.57;2.10;;;14.70;99.90;;;;;;4911701;29;20243;-59
2023/03/30 13:04:16;;;;;;;12.63;2.30;;;14.90;99.90;;;;;;4921319;29;20836;-59
2023/03/30 13:06:51;;;;;;;7.50;2.10;;;14.90;99.90;;;;;;4920702;29;20244;-59
2023/03/30 13:09:52;;;;;;;7.27;2.20;;;15.00;99.90;;;;;;4921391;29;20706;-59
2023/03/30 13:12:31;;;;;;;7.17;2.33;;;15.10;99.90;;;;;;4881143;29;20242;-59
2023/03/30 13:15:07;;;;;;;8.47;1.93;;;15.20;99.90;;;;;;4924233;29;20319;-59
2023/03/30 13:17:50;;;;;;;6.93;1.67;;;15.20;99.90;;;;;;4923942;29;20247;-59
2023/03/30 13:20:20;;;;;;;6.17;1.73;;;15.30;99.90;;;;;;4924580;29;20263;-60
2023/03/30 13:23:23;;;;;;;4.87;1.27;;;15.20;99.90;;;;;;4923657;29;20804;-58
2023/03/30 13:26:01;;;;;;;4.73;1.10;;;15.00;99.90;;;;;;4923759;29;20290;-58
2023/03/30 13:28:57;;;;;;;5.37;1.70;;;14.90;99.90;;;;;;4924358;29;20689;-57
2023/03/30 13:31:40;;;;;;;8.90;1.53;;;14.80;99.90;;;;;;4923693;29;20337;-58
2023/03/30 13:34:17;;;;;;;7.10;1.87;;;14.80;99.90;;;;;;4923961;29;20308;-59